sensor_id;sensor_type;location;lat;lon;timestamp;P1;durP1;ratioP1;P2;durP2;ratioP2
79137;SDS011;68544;45.566;10.238;2024-03-02T00:00:00;12.18;;;7.20;;
79137;SDS011;68544;45.566;10.238;2024-03-02T00:02:27;10.63;;;7.00;;
79137;SDS011;68544;45.566;10.238;2024-03-02T00:04:53;11.50;;;6.67;;
79137;SDS011;68544;45.566;10.238;2024-03-02T00:07:18;10.30;;;6.13;;
79137;SDS011;68544;45.566;10.238;2024-03-02T00:09:44;10.25;;;6.50;;
79137;SDS011;68544;45.566;10.238;2024-03-02T00:12:11;5.03;;;4.13;;
79137;SDS011;68544;45.566;10.238;2024-03-02T00:14:40;4.68;;;2.85;;
79137;SDS011;68544;45.566;10.238;2024-03-02T00:17:07;6.90;;;4.60;;
79137;SDS011;68544;45.566;10.238;2024-03-02T00:19:44;11.73;;;5.30;;
79137;SDS011;68544;45.566;10.238;2024-03-02T00:22:09;8.27;;;5.70;;
79137;SDS011;68544;45.566;10.238;2024-03-02T00:24:34;10.93;;;5.43;;
79137;SDS011;68544;45.566;10.238;2024-03-02T00:27:01;7.72;;;5.70;;
79137;SDS011;68544;45.566;10.238;2024-03-02T00:29:28;9.85;;;5.07;;
79137;SDS011;68544;45.566;10.238;2024-03-02T00:31:54;7.55;;;4.22;;
79137;SDS011;68544;45.566;10.238;2024-03-02T00:34:20;8.30;;;4.70;;
79137;SDS011;68544;45.566;10.238;2024-03-02T00:36:46;8.43;;;2.60;;
79137;SDS011;68544;45.566;10.238;2024-03-02T00:39:12;4.40;;;1.77;;
79137;SDS011;68544;45.566;10.238;2024-03-02T00:41:42;3.88;;;1.90;;
79137;SDS011;68544;45.566;10.238;2024-03-02T00:44:07;5.07;;;1.90;;
79137;SDS011;68544;45.566;10.238;2024-03-02T00:46:38;5.43;;;1.70;;
79137;SDS011;68544;45.566;10.238;2024-03-02T00:49:25;3.33;;;1.73;;
79137;SDS011;68544;45.566;10.238;2024-03-02T00:51:53;4.60;;;1.83;;
79137;SDS011;68544;45.566;10.238;2024-03-02T00:54:20;7.07;;;1.90;;
79137;SDS011;68544;45.566;10.238;2024-03-02T00:56:47;3.55;;;1.38;;
79137;SDS011;68544;45.566;10.238;2024-03-02T00:59:13;3.88;;;1.70;;
79137;SDS011;68544;45.566;10.238;2024-03-02T01:01:38;4.37;;;1.70;;
79137;SDS011;68544;45.566;10.238;2024-03-02T01:04:03;3.33;;;1.90;;
79137;SDS011;68544;45.566;10.238;2024-03-02T01:06:29;3.90;;;1.73;;
79137;SDS011;68544;45.566;10.238;2024-03-02T01:08:55;5.43;;;1.60;;
79137;SDS011;68544;45.566;10.238;2024-03-02T01:11:20;3.37;;;1.23;;
79137;SDS011;68544;45.566;10.238;2024-03-02T01:13:48;3.20;;;1.60;;
79137;SDS011;68544;45.566;10.238;2024-03-02T01:16:14;5.13;;;1.70;;
79137;SDS011;68544;45.566;10.238;2024-03-02T01:18:40;5.53;;;1.70;;
79137;SDS011;68544;45.566;10.238;2024-03-02T01:21:06;5.80;;;2.17;;
79137;SDS011;68544;45.566;10.238;2024-03-02T01:23:32;4.23;;;1.47;;
79137;SDS011;68544;45.566;10.238;2024-03-02T01:25:57;7.07;;;1.83;;
79137;SDS011;68544;45.566;10.238;2024-03-02T01:28:23;4.22;;;1.60;;
79137;SDS011;68544;45.566;10.238;2024-03-02T01:30:48;5.23;;;2.63;;
79137;SDS011;68544;45.566;10.238;2024-03-02T01:33:14;4.67;;;1.97;;
79137;SDS011;68544;45.566;10.238;2024-03-02T01:35:40;2.47;;;1.42;;
79137;SDS011;68544;45.566;10.238;2024-03-02T01:38:05;4.27;;;1.80;;
79137;SDS011;68544;45.566;10.238;2024-03-02T01:40:32;3.10;;;1.73;;
79137;SDS011;68544;45.566;10.238;2024-03-02T01:42:58;4.30;;;1.85;;
79137;SDS011;68544;45.566;10.238;2024-03-02T01:45:24;4.93;;;2.77;;
79137;SDS011;68544;45.566;10.238;2024-03-02T01:47:49;6.67;;;3.00;;
79137;SDS011;68544;45.566;10.238;2024-03-02T01:50:15;5.65;;;3.20;;
79137;SDS011;68544;45.566;10.238;2024-03-02T01:52:41;10.02;;;3.85;;
79137;SDS011;68544;45.566;10.238;2024-03-02T01:55:07;10.38;;;4.72;;
79137;SDS011;68544;45.566;10.238;2024-03-02T01:57:33;10.02;;;4.68;;
79137;SDS011;68544;45.566;10.238;2024-03-02T02:00:01;6.75;;;4.53;;
79137;SDS011;68544;45.566;10.238;2024-03-02T02:02:28;9.25;;;4.07;;
79137;SDS011;68544;45.566;10.238;2024-03-02T02:04:53;7.53;;;3.47;;
79137;SDS011;68544;45.566;10.238;2024-03-02T02:07:19;6.87;;;3.50;;
79137;SDS011;68544;45.566;10.238;2024-03-02T02:09:44;9.63;;;3.50;;
79137;SDS011;68544;45.566;10.238;2024-03-02T02:12:10;8.00;;;3.50;;
79137;SDS011;68544;45.566;10.238;2024-03-02T02:14:36;10.90;;;4.40;;
79137;SDS011;68544;45.566;10.238;2024-03-02T02:17:02;9.00;;;3.63;;
79137;SDS011;68544;45.566;10.238;2024-03-02T02:19:27;6.70;;;3.30;;
79137;SDS011;68544;45.566;10.238;2024-03-02T02:21:53;7.68;;;3.20;;
79137;SDS011;68544;45.566;10.238;2024-03-02T02:24:19;7.00;;;3.53;;
79137;SDS011;68544;45.566;10.238;2024-03-02T02:26:44;6.77;;;3.30;;
79137;SDS011;68544;45.566;10.238;2024-03-02T02:29:09;9.37;;;3.80;;
79137;SDS011;68544;45.566;10.238;2024-03-02T02:31:41;6.93;;;3.30;;
79137;SDS011;68544;45.566;10.238;2024-03-02T02:34:07;6.25;;;3.28;;
79137;SDS011;68544;45.566;10.238;2024-03-02T02:36:33;6.70;;;3.83;;
79137;SDS011;68544;45.566;10.238;2024-03-02T02:39:00;7.07;;;3.45;;
79137;SDS011;68544;45.566;10.238;2024-03-02T02:41:32;5.93;;;3.40;;
79137;SDS011;68544;45.566;10.238;2024-03-02T02:43:57;7.97;;;3.37;;
79137;SDS011;68544;45.566;10.238;2024-03-02T02:46:22;8.27;;;3.33;;
79137;SDS011;68544;45.566;10.238;2024-03-02T02:48:48;5.60;;;3.20;;
79137;SDS011;68544;45.566;10.238;2024-03-02T02:51:13;4.67;;;3.17;;
79137;SDS011;68544;45.566;10.238;2024-03-02T02:53:38;4.23;;;3.30;;
79137;SDS011;68544;45.566;10.238;2024-03-02T02:56:07;5.88;;;3.28;;
79137;SDS011;68544;45.566;10.238;2024-03-02T02:58:32;4.50;;;3.20;;
79137;SDS011;68544;45.566;10.238;2024-03-02T03:00:57;7.57;;;3.43;;
79137;SDS011;68544;45.566;10.238;2024-03-02T03:03:23;6.30;;;3.13;;
79137;SDS011;68544;45.566;10.238;2024-03-02T03:05:48;4.03;;;2.70;;
79137;SDS011;68544;45.566;10.238;2024-03-02T03:08:13;4.37;;;2.40;;
79137;SDS011;68544;45.566;10.238;2024-03-02T03:10:40;4.68;;;2.38;;
79137;SDS011;68544;45.566;10.238;2024-03-02T03:13:06;6.97;;;2.53;;
79137;SDS011;68544;45.566;10.238;2024-03-02T03:15:33;6.50;;;2.92;;
79137;SDS011;68544;45.566;10.238;2024-03-02T03:17:59;5.13;;;2.40;;
79137;SDS011;68544;45.566;10.238;2024-03-02T03:20:25;7.00;;;2.20;;
79137;SDS011;68544;45.566;10.238;2024-03-02T03:22:50;6.53;;;2.87;;
79137;SDS011;68544;45.566;10.238;2024-03-02T03:25:15;7.63;;;2.40;;
79137;SDS011;68544;45.566;10.238;2024-03-02T03:27:40;5.97;;;2.33;;
79137;SDS011;68544;45.566;10.238;2024-03-02T03:30:06;4.78;;;2.17;;
79137;SDS011;68544;45.566;10.238;2024-03-02T03:32:32;12.23;;;3.15;;
79137;SDS011;68544;45.566;10.238;2024-03-02T03:34:57;5.20;;;2.43;;
79137;SDS011;68544;45.566;10.238;2024-03-02T03:37:23;6.37;;;2.33;;
79137;SDS011;68544;45.566;10.238;2024-03-02T03:39:49;4.40;;;1.75;;
79137;SDS011;68544;45.566;10.238;2024-03-02T03:42:14;5.23;;;1.70;;
79137;SDS011;68544;45.566;10.238;2024-03-02T03:44:40;4.00;;;1.57;;
79137;SDS011;68544;45.566;10.238;2024-03-02T03:47:06;6.53;;;1.65;;
79137;SDS011;68544;45.566;10.238;2024-03-02T03:49:32;5.63;;;2.13;;
79137;SDS011;68544;45.566;10.238;2024-03-02T03:51:57;5.83;;;1.60;;
79137;SDS011;68544;45.566;10.238;2024-03-02T03:54:22;3.10;;;1.80;;
79137;SDS011;68544;45.566;10.238;2024-03-02T03:56:48;5.50;;;1.87;;
79137;SDS011;68544;45.566;10.238;2024-03-02T03:59:13;4.80;;;1.70;;
79137;SDS011;68544;45.566;10.238;2024-03-02T04:01:39;5.70;;;1.77;;
79137;SDS011;68544;45.566;10.238;2024-03-02T04:04:04;5.80;;;2.17;;
79137;SDS011;68544;45.566;10.238;2024-03-02T04:06:30;4.82;;;1.80;;
79137;SDS011;68544;45.566;10.238;2024-03-02T04:08:55;6.13;;;2.17;;
79137;SDS011;68544;45.566;10.238;2024-03-02T04:11:21;3.33;;;1.63;;
79137;SDS011;68544;45.566;10.238;2024-03-02T04:13:46;5.00;;;2.10;;
79137;SDS011;68544;45.566;10.238;2024-03-02T04:16:11;5.30;;;1.70;;
79137;SDS011;68544;45.566;10.238;2024-03-02T04:18:37;5.20;;;1.83;;
79137;SDS011;68544;45.566;10.238;2024-03-02T04:21:03;5.80;;;1.90;;
79137;SDS011;68544;45.566;10.238;2024-03-02T04:23:28;5.53;;;2.30;;
79137;SDS011;68544;45.566;10.238;2024-03-02T04:25:53;5.20;;;2.10;;
79137;SDS011;68544;45.566;10.238;2024-03-02T04:28:19;4.73;;;1.97;;
79137;SDS011;68544;45.566;10.238;2024-03-02T04:30:44;6.03;;;2.10;;
79137;SDS011;68544;45.566;10.238;2024-03-02T04:33:10;7.67;;;2.57;;
79137;SDS011;68544;45.566;10.238;2024-03-02T04:35:35;3.87;;;2.37;;
79137;SDS011;68544;45.566;10.238;2024-03-02T04:38:01;3.90;;;2.20;;
79137;SDS011;68544;45.566;10.238;2024-03-02T04:40:27;7.63;;;2.40;;
79137;SDS011;68544;45.566;10.238;2024-03-02T04:42:52;5.20;;;1.80;;
79137;SDS011;68544;45.566;10.238;2024-03-02T04:45:17;5.03;;;2.10;;
79137;SDS011;68544;45.566;10.238;2024-03-02T04:47:43;5.20;;;2.15;;
79137;SDS011;68544;45.566;10.238;2024-03-02T04:50:08;3.37;;;2.10;;
79137;SDS011;68544;45.566;10.238;2024-03-02T04:52:34;3.57;;;1.77;;
79137;SDS011;68544;45.566;10.238;2024-03-02T04:54:59;3.80;;;2.03;;
79137;SDS011;68544;45.566;10.238;2024-03-02T04:57:43;5.85;;;2.40;;
79137;SDS011;68544;45.566;10.238;2024-03-02T05:00:09;5.87;;;2.33;;
79137;SDS011;68544;45.566;10.238;2024-03-02T05:02:35;4.90;;;2.35;;
79137;SDS011;68544;45.566;10.238;2024-03-02T05:05:00;7.43;;;2.33;;
79137;SDS011;68544;45.566;10.238;2024-03-02T05:07:26;6.20;;;2.87;;
79137;SDS011;68544;45.566;10.238;2024-03-02T05:09:51;4.60;;;2.23;;
79137;SDS011;68544;45.566;10.238;2024-03-02T05:12:17;6.43;;;2.63;;
79137;SDS011;68544;45.566;10.238;2024-03-02T05:15:00;5.18;;;2.60;;
79137;SDS011;68544;45.566;10.238;2024-03-02T05:17:26;3.95;;;2.33;;
79137;SDS011;68544;45.566;10.238;2024-03-02T05:19:51;4.87;;;2.43;;
79137;SDS011;68544;45.566;10.238;2024-03-02T05:22:16;4.67;;;2.07;;
79137;SDS011;68544;45.566;10.238;2024-03-02T05:24:41;5.27;;;2.13;;
79137;SDS011;68544;45.566;10.238;2024-03-02T05:27:07;5.60;;;2.20;;
79137;SDS011;68544;45.566;10.238;2024-03-02T05:29:32;5.67;;;2.40;;
79137;SDS011;68544;45.566;10.238;2024-03-02T05:31:58;4.77;;;2.53;;
79137;SDS011;68544;45.566;10.238;2024-03-02T05:34:23;6.00;;;2.30;;
79137;SDS011;68544;45.566;10.238;2024-03-02T05:36:48;5.07;;;2.20;;
79137;SDS011;68544;45.566;10.238;2024-03-02T05:39:14;5.50;;;2.10;;
79137;SDS011;68544;45.566;10.238;2024-03-02T05:41:39;5.00;;;2.07;;
79137;SDS011;68544;45.566;10.238;2024-03-02T05:44:04;6.33;;;2.90;;
79137;SDS011;68544;45.566;10.238;2024-03-02T05:46:30;3.95;;;2.67;;
79137;SDS011;68544;45.566;10.238;2024-03-02T05:48:55;4.83;;;2.23;;
79137;SDS011;68544;45.566;10.238;2024-03-02T05:51:21;6.53;;;2.80;;
79137;SDS011;68544;45.566;10.238;2024-03-02T05:53:46;4.03;;;2.40;;
79137;SDS011;68544;45.566;10.238;2024-03-02T05:56:11;4.53;;;2.50;;
79137;SDS011;68544;45.566;10.238;2024-03-02T05:58:37;4.40;;;2.73;;
79137;SDS011;68544;45.566;10.238;2024-03-02T06:01:21;4.57;;;2.20;;
79137;SDS011;68544;45.566;10.238;2024-03-02T06:03:53;5.53;;;2.63;;
79137;SDS011;68544;45.566;10.238;2024-03-02T06:06:18;4.47;;;2.50;;
79137;SDS011;68544;45.566;10.238;2024-03-02T06:08:43;5.70;;;2.70;;
79137;SDS011;68544;45.566;10.238;2024-03-02T06:11:09;5.10;;;2.37;;
79137;SDS011;68544;45.566;10.238;2024-03-02T06:13:34;5.20;;;2.13;;
79137;SDS011;68544;45.566;10.238;2024-03-02T06:15:59;4.03;;;2.00;;
79137;SDS011;68544;45.566;10.238;2024-03-02T06:18:25;7.13;;;2.50;;
79137;SDS011;68544;45.566;10.238;2024-03-02T06:20:50;4.97;;;2.10;;
79137;SDS011;68544;45.566;10.238;2024-03-02T06:23:15;5.07;;;1.80;;
79137;SDS011;68544;45.566;10.238;2024-03-02T06:25:41;4.17;;;2.10;;
79137;SDS011;68544;45.566;10.238;2024-03-02T06:28:06;5.50;;;2.43;;
79137;SDS011;68544;45.566;10.238;2024-03-02T06:30:32;5.45;;;2.20;;
79137;SDS011;68544;45.566;10.238;2024-03-02T06:32:57;7.27;;;2.63;;
79137;SDS011;68544;45.566;10.238;2024-03-02T06:35:23;6.40;;;2.20;;
79137;SDS011;68544;45.566;10.238;2024-03-02T06:37:48;6.87;;;2.10;;
79137;SDS011;68544;45.566;10.238;2024-03-02T06:40:13;7.13;;;2.33;;
79137;SDS011;68544;45.566;10.238;2024-03-02T06:42:39;8.87;;;2.33;;
79137;SDS011;68544;45.566;10.238;2024-03-02T06:45:04;7.20;;;2.47;;
79137;SDS011;68544;45.566;10.238;2024-03-02T06:47:30;5.35;;;2.47;;
79137;SDS011;68544;45.566;10.238;2024-03-02T06:49:55;4.73;;;2.13;;
79137;SDS011;68544;45.566;10.238;2024-03-02T06:52:22;5.20;;;2.47;;
79137;SDS011;68544;45.566;10.238;2024-03-02T06:54:47;4.03;;;2.30;;
79137;SDS011;68544;45.566;10.238;2024-03-02T06:57:13;4.97;;;2.50;;
79137;SDS011;68544;45.566;10.238;2024-03-02T06:59:38;3.50;;;2.47;;
79137;SDS011;68544;45.566;10.238;2024-03-02T07:02:03;6.47;;;2.70;;
79137;SDS011;68544;45.566;10.238;2024-03-02T07:04:29;6.83;;;2.37;;
79137;SDS011;68544;45.566;10.238;2024-03-02T07:06:54;7.00;;;3.30;;
79137;SDS011;68544;45.566;10.238;2024-03-02T07:09:20;6.35;;;3.00;;
79137;SDS011;68544;45.566;10.238;2024-03-02T07:11:47;7.22;;;2.60;;
79137;SDS011;68544;45.566;10.238;2024-03-02T07:14:13;4.80;;;2.42;;
79137;SDS011;68544;45.566;10.238;2024-03-02T07:16:38;5.77;;;3.03;;
79137;SDS011;68544;45.566;10.238;2024-03-02T07:19:05;5.68;;;2.83;;
79137;SDS011;68544;45.566;10.238;2024-03-02T07:21:31;6.10;;;2.80;;
79137;SDS011;68544;45.566;10.238;2024-03-02T07:23:58;5.93;;;2.90;;
79137;SDS011;68544;45.566;10.238;2024-03-02T07:26:24;7.05;;;3.25;;
79137;SDS011;68544;45.566;10.238;2024-03-02T07:28:50;4.75;;;3.00;;
79137;SDS011;68544;45.566;10.238;2024-03-02T07:31:16;5.63;;;2.80;;
79137;SDS011;68544;45.566;10.238;2024-03-02T07:33:41;7.20;;;2.87;;
79137;SDS011;68544;45.566;10.238;2024-03-02T07:36:09;4.85;;;2.70;;
79137;SDS011;68544;45.566;10.238;2024-03-02T07:38:34;7.37;;;3.50;;
79137;SDS011;68544;45.566;10.238;2024-03-02T07:41:00;7.53;;;3.08;;
79137;SDS011;68544;45.566;10.238;2024-03-02T07:43:26;7.35;;;3.35;;
79137;SDS011;68544;45.566;10.238;2024-03-02T07:45:51;9.02;;;3.67;;
79137;SDS011;68544;45.566;10.238;2024-03-02T07:48:17;9.35;;;3.20;;
79137;SDS011;68544;45.566;10.238;2024-03-02T07:50:43;9.57;;;3.43;;
79137;SDS011;68544;45.566;10.238;2024-03-02T07:53:08;4.30;;;3.07;;
79137;SDS011;68544;45.566;10.238;2024-03-02T07:55:34;4.67;;;2.97;;
79137;SDS011;68544;45.566;10.238;2024-03-02T07:58:02;5.93;;;3.40;;
79137;SDS011;68544;45.566;10.238;2024-03-02T08:00:27;7.15;;;4.20;;
79137;SDS011;68544;45.566;10.238;2024-03-02T08:02:53;6.07;;;3.67;;
79137;SDS011;68544;45.566;10.238;2024-03-02T08:05:18;6.33;;;4.40;;
79137;SDS011;68544;45.566;10.238;2024-03-02T08:07:45;7.60;;;4.05;;
79137;SDS011;68544;45.566;10.238;2024-03-02T08:10:11;7.45;;;4.88;;
79137;SDS011;68544;45.566;10.238;2024-03-02T08:12:36;8.23;;;5.10;;
79137;SDS011;68544;45.566;10.238;2024-03-02T08:15:02;8.53;;;5.90;;
79137;SDS011;68544;45.566;10.238;2024-03-02T08:17:27;9.57;;;6.10;;
79137;SDS011;68544;45.566;10.238;2024-03-02T08:19:53;9.07;;;5.37;;
79137;SDS011;68544;45.566;10.238;2024-03-02T08:22:19;8.10;;;5.50;;
79137;SDS011;68544;45.566;10.238;2024-03-02T08:24:44;9.90;;;6.30;;
79137;SDS011;68544;45.566;10.238;2024-03-02T08:27:10;7.60;;;5.63;;
79137;SDS011;68544;45.566;10.238;2024-03-02T08:29:35;10.70;;;7.23;;
79137;SDS011;68544;45.566;10.238;2024-03-02T08:32:01;8.47;;;7.03;;
79137;SDS011;68544;45.566;10.238;2024-03-02T08:34:26;11.03;;;7.53;;
79137;SDS011;68544;45.566;10.238;2024-03-02T08:36:51;9.03;;;6.57;;
79137;SDS011;68544;45.566;10.238;2024-03-02T08:39:17;9.87;;;6.17;;
79137;SDS011;68544;45.566;10.238;2024-03-02T08:41:44;9.68;;;6.80;;
79137;SDS011;68544;45.566;10.238;2024-03-02T08:44:10;9.25;;;6.78;;
79137;SDS011;68544;45.566;10.238;2024-03-02T08:46:36;11.65;;;6.45;;
79137;SDS011;68544;45.566;10.238;2024-03-02T08:49:02;8.40;;;6.47;;
79137;SDS011;68544;45.566;10.238;2024-03-02T08:51:28;9.57;;;6.82;;
79137;SDS011;68544;45.566;10.238;2024-03-02T08:53:53;11.77;;;7.27;;
79137;SDS011;68544;45.566;10.238;2024-03-02T08:56:19;9.03;;;6.60;;
79137;SDS011;68544;45.566;10.238;2024-03-02T08:58:45;11.07;;;7.15;;
79137;SDS011;68544;45.566;10.238;2024-03-02T09:01:11;8.80;;;6.90;;
79137;SDS011;68544;45.566;10.238;2024-03-02T09:03:36;12.18;;;8.20;;
79137;SDS011;68544;45.566;10.238;2024-03-02T09:06:02;8.10;;;7.10;;
79137;SDS011;68544;45.566;10.238;2024-03-02T09:08:28;9.23;;;7.00;;
79137;SDS011;68544;45.566;10.238;2024-03-02T09:10:53;10.97;;;6.90;;
79137;SDS011;68544;45.566;10.238;2024-03-02T09:13:19;9.02;;;6.85;;
79137;SDS011;68544;45.566;10.238;2024-03-02T09:15:45;9.13;;;7.05;;
79137;SDS011;68544;45.566;10.238;2024-03-02T09:18:10;11.97;;;7.00;;
79137;SDS011;68544;45.566;10.238;2024-03-02T09:20:36;12.40;;;6.83;;
79137;SDS011;68544;45.566;10.238;2024-03-02T09:23:01;9.60;;;6.30;;
79137;SDS011;68544;45.566;10.238;2024-03-02T09:25:26;11.70;;;6.30;;
79137;SDS011;68544;45.566;10.238;2024-03-02T09:27:52;9.83;;;5.20;;
79137;SDS011;68544;45.566;10.238;2024-03-02T09:30:17;9.13;;;5.50;;
79137;SDS011;68544;45.566;10.238;2024-03-02T09:32:42;8.60;;;5.67;;
79137;SDS011;68544;45.566;10.238;2024-03-02T09:35:08;5.50;;;2.80;;
79137;SDS011;68544;45.566;10.238;2024-03-02T09:37:34;9.10;;;2.80;;
79137;SDS011;68544;45.566;10.238;2024-03-02T09:39:59;7.43;;;3.13;;
79137;SDS011;68544;45.566;10.238;2024-03-02T09:42:25;7.00;;;3.60;;
79137;SDS011;68544;45.566;10.238;2024-03-02T09:44:51;5.33;;;3.33;;
79137;SDS011;68544;45.566;10.238;2024-03-02T09:47:17;5.60;;;3.10;;
79137;SDS011;68544;45.566;10.238;2024-03-02T09:49:42;5.20;;;1.90;;
79137;SDS011;68544;45.566;10.238;2024-03-02T09:52:08;4.30;;;1.63;;
79137;SDS011;68544;45.566;10.238;2024-03-02T09:54:35;4.63;;;1.33;;
79137;SDS011;68544;45.566;10.238;2024-03-02T09:57:01;3.37;;;1.20;;
79137;SDS011;68544;45.566;10.238;2024-03-02T09:59:27;5.18;;;1.60;;
79137;SDS011;68544;45.566;10.238;2024-03-02T10:01:57;6.68;;;1.60;;
79137;SDS011;68544;45.566;10.238;2024-03-02T10:04:26;7.07;;;1.58;;
79137;SDS011;68544;45.566;10.238;2024-03-02T10:06:52;5.63;;;1.52;;
79137;SDS011;68544;45.566;10.238;2024-03-02T10:09:36;5.03;;;1.50;;
79137;SDS011;68544;45.566;10.238;2024-03-02T10:12:03;4.33;;;1.50;;
79137;SDS011;68544;45.566;10.238;2024-03-02T10:14:30;4.85;;;1.20;;
79137;SDS011;68544;45.566;10.238;2024-03-02T10:16:55;4.17;;;1.27;;
79137;SDS011;68544;45.566;10.238;2024-03-02T10:19:28;4.43;;;1.13;;
79137;SDS011;68544;45.566;10.238;2024-03-02T10:21:57;3.38;;;1.33;;
79137;SDS011;68544;45.566;10.238;2024-03-02T10:24:23;4.35;;;1.00;;
79137;SDS011;68544;45.566;10.238;2024-03-02T10:26:49;3.20;;;1.20;;
79137;SDS011;68544;45.566;10.238;2024-03-02T10:29:15;4.18;;;1.05;;
79137;SDS011;68544;45.566;10.238;2024-03-02T10:31:41;3.17;;;1.23;;
79137;SDS011;68544;45.566;10.238;2024-03-02T10:34:09;4.10;;;1.20;;
79137;SDS011;68544;45.566;10.238;2024-03-02T10:36:35;5.18;;;1.00;;
79137;SDS011;68544;45.566;10.238;2024-03-02T10:39:05;4.65;;;1.20;;
79137;SDS011;68544;45.566;10.238;2024-03-02T10:41:33;3.67;;;0.88;;
79137;SDS011;68544;45.566;10.238;2024-03-02T10:43:59;4.95;;;1.15;;
79137;SDS011;68544;45.566;10.238;2024-03-02T10:46:28;3.28;;;1.00;;
79137;SDS011;68544;45.566;10.238;2024-03-02T10:48:55;3.08;;;1.00;;
79137;SDS011;68544;45.566;10.238;2024-03-02T10:51:27;3.13;;;0.93;;
79137;SDS011;68544;45.566;10.238;2024-03-02T10:53:56;3.22;;;1.50;;
79137;SDS011;68544;45.566;10.238;2024-03-02T10:56:27;4.32;;;0.80;;
79137;SDS011;68544;45.566;10.238;2024-03-02T10:59:01;3.60;;;0.93;;
79137;SDS011;68544;45.566;10.238;2024-03-02T11:01:43;4.70;;;0.85;;
79137;SDS011;68544;45.566;10.238;2024-03-02T11:04:11;7.03;;;1.27;;
79137;SDS011;68544;45.566;10.238;2024-03-02T11:06:40;2.72;;;1.05;;
79137;SDS011;68544;45.566;10.238;2024-03-02T11:09:13;4.35;;;1.00;;
79137;SDS011;68544;45.566;10.238;2024-03-02T11:11:40;2.60;;;0.90;;
79137;SDS011;68544;45.566;10.238;2024-03-02T11:14:10;2.75;;;0.85;;
79137;SDS011;68544;45.566;10.238;2024-03-02T11:16:39;5.82;;;1.30;;
79137;SDS011;68544;45.566;10.238;2024-03-02T11:19:06;4.28;;;0.73;;
79137;SDS011;68544;45.566;10.238;2024-03-02T11:21:35;3.60;;;1.05;;
79137;SDS011;68544;45.566;10.238;2024-03-02T11:24:09;4.57;;;1.30;;
79137;SDS011;68544;45.566;10.238;2024-03-02T11:26:46;3.88;;;0.90;;
79137;SDS011;68544;45.566;10.238;2024-03-02T11:29:33;2.43;;;0.80;;
79137;SDS011;68544;45.566;10.238;2024-03-02T11:32:05;2.28;;;0.80;;
79137;SDS011;68544;45.566;10.238;2024-03-02T11:34:38;3.97;;;1.15;;
79137;SDS011;68544;45.566;10.238;2024-03-02T11:37:10;4.50;;;1.30;;
79137;SDS011;68544;45.566;10.238;2024-03-02T11:39:36;4.18;;;1.00;;
79137;SDS011;68544;45.566;10.238;2024-03-02T11:42:05;3.63;;;1.00;;
79137;SDS011;68544;45.566;10.238;2024-03-02T11:44:32;4.10;;;0.98;;
79137;SDS011;68544;45.566;10.238;2024-03-02T11:47:01;4.45;;;0.98;;
79137;SDS011;68544;45.566;10.238;2024-03-02T11:49:37;3.67;;;1.17;;
79137;SDS011;68544;45.566;10.238;2024-03-02T11:52:07;3.88;;;1.20;;
79137;SDS011;68544;45.566;10.238;2024-03-02T11:54:34;5.10;;;1.30;;
79137;SDS011;68544;45.566;10.238;2024-03-02T11:57:02;5.80;;;1.10;;
79137;SDS011;68544;45.566;10.238;2024-03-02T11:59:31;7.20;;;1.10;;
79137;SDS011;68544;45.566;10.238;2024-03-02T12:01:56;4.30;;;0.80;;
79137;SDS011;68544;45.566;10.238;2024-03-02T12:06:54;3.85;;;1.10;;
79137;SDS011;68544;45.566;10.238;2024-03-02T12:09:26;3.97;;;0.90;;
79137;SDS011;68544;45.566;10.238;2024-03-02T12:14:29;2.78;;;0.80;;
79137;SDS011;68544;45.566;10.238;2024-03-02T12:16:55;1.85;;;0.50;;
79137;SDS011;68544;45.566;10.238;2024-03-02T12:19:21;1.10;;;0.40;;
79137;SDS011;68544;45.566;10.238;2024-03-02T12:21:46;2.30;;;0.60;;
79137;SDS011;68544;45.566;10.238;2024-03-02T12:24:11;1.70;;;0.50;;
79137;SDS011;68544;45.566;10.238;2024-03-02T12:26:37;2.20;;;0.50;;
79137;SDS011;68544;45.566;10.238;2024-03-02T12:29:02;2.03;;;0.70;;
79137;SDS011;68544;45.566;10.238;2024-03-02T12:31:28;3.17;;;0.87;;
79137;SDS011;68544;45.566;10.238;2024-03-02T12:33:54;2.43;;;0.53;;
79137;SDS011;68544;45.566;10.238;2024-03-02T12:38:45;2.80;;;0.80;;
79137;SDS011;68544;45.566;10.238;2024-03-02T12:41:14;2.58;;;0.70;;
79137;SDS011;68544;45.566;10.238;2024-03-02T12:43:40;2.22;;;0.80;;
79137;SDS011;68544;45.566;10.238;2024-03-02T12:46:05;2.83;;;0.70;;
79137;SDS011;68544;45.566;10.238;2024-03-02T12:48:31;1.80;;;0.73;;
79137;SDS011;68544;45.566;10.238;2024-03-02T12:50:56;3.37;;;0.80;;
79137;SDS011;68544;45.566;10.238;2024-03-02T12:53:21;2.20;;;0.67;;
79137;SDS011;68544;45.566;10.238;2024-03-02T12:55:47;1.70;;;0.50;;
79137;SDS011;68544;45.566;10.238;2024-03-02T12:58:18;3.00;;;0.60;;
79137;SDS011;68544;45.566;10.238;2024-03-02T13:00:47;2.53;;;0.65;;
79137;SDS011;68544;45.566;10.238;2024-03-02T13:03:12;4.27;;;0.70;;
79137;SDS011;68544;45.566;10.238;2024-03-02T13:05:38;2.67;;;0.85;;
79137;SDS011;68544;45.566;10.238;2024-03-02T13:08:04;3.25;;;0.90;;
79137;SDS011;68544;45.566;10.238;2024-03-02T13:10:32;3.03;;;1.05;;
79137;SDS011;68544;45.566;10.238;2024-03-02T13:12:58;4.82;;;1.00;;
79137;SDS011;68544;45.566;10.238;2024-03-02T13:15:23;2.87;;;1.20;;
79137;SDS011;68544;45.566;10.238;2024-03-02T13:17:50;4.22;;;1.00;;
79137;SDS011;68544;45.566;10.238;2024-03-02T13:20:16;4.90;;;1.37;;
79137;SDS011;68544;45.566;10.238;2024-03-02T13:22:43;3.58;;;1.33;;
79137;SDS011;68544;45.566;10.238;2024-03-02T13:25:08;3.40;;;1.50;;
79137;SDS011;68544;45.566;10.238;2024-03-02T13:27:35;3.83;;;1.75;;
79137;SDS011;68544;45.566;10.238;2024-03-02T13:30:02;6.97;;;1.70;;
79137;SDS011;68544;45.566;10.238;2024-03-02T13:32:30;3.38;;;1.35;;
79137;SDS011;68544;45.566;10.238;2024-03-02T13:34:56;4.53;;;1.33;;
79137;SDS011;68544;45.566;10.238;2024-03-02T13:37:21;3.23;;;1.07;;
79137;SDS011;68544;45.566;10.238;2024-03-02T13:39:47;4.17;;;1.00;;
79137;SDS011;68544;45.566;10.238;2024-03-02T13:42:12;4.57;;;1.20;;
79137;SDS011;68544;45.566;10.238;2024-03-02T13:44:39;5.53;;;1.70;;
79137;SDS011;68544;45.566;10.238;2024-03-02T13:47:05;5.25;;;1.00;;
79137;SDS011;68544;45.566;10.238;2024-03-02T13:49:31;3.53;;;1.00;;
79137;SDS011;68544;45.566;10.238;2024-03-02T13:52:04;2.08;;;0.90;;
79137;SDS011;68544;45.566;10.238;2024-03-02T13:54:38;3.97;;;1.20;;
79137;SDS011;68544;45.566;10.238;2024-03-02T13:57:05;3.22;;;1.08;;
79137;SDS011;68544;45.566;10.238;2024-03-02T13:59:31;2.38;;;1.08;;
79137;SDS011;68544;45.566;10.238;2024-03-02T14:01:56;4.13;;;0.97;;
79137;SDS011;68544;45.566;10.238;2024-03-02T14:04:22;3.20;;;1.53;;
79137;SDS011;68544;45.566;10.238;2024-03-02T14:06:47;3.83;;;0.80;;
79137;SDS011;68544;45.566;10.238;2024-03-02T14:09:13;2.80;;;0.90;;
79137;SDS011;68544;45.566;10.238;2024-03-02T14:11:38;4.37;;;1.07;;
79137;SDS011;68544;45.566;10.238;2024-03-02T14:14:04;2.60;;;1.13;;
79137;SDS011;68544;45.566;10.238;2024-03-02T14:16:29;3.40;;;1.10;;
79137;SDS011;68544;45.566;10.238;2024-03-02T14:18:54;3.87;;;1.00;;
79137;SDS011;68544;45.566;10.238;2024-03-02T14:21:20;3.67;;;1.10;;
79137;SDS011;68544;45.566;10.238;2024-03-02T14:23:45;3.43;;;1.23;;
79137;SDS011;68544;45.566;10.238;2024-03-02T14:26:10;4.57;;;1.20;;
79137;SDS011;68544;45.566;10.238;2024-03-02T14:28:36;2.70;;;0.77;;
79137;SDS011;68544;45.566;10.238;2024-03-02T14:31:01;3.03;;;1.10;;
79137;SDS011;68544;45.566;10.238;2024-03-02T14:33:27;4.87;;;1.27;;
79137;SDS011;68544;45.566;10.238;2024-03-02T14:38:19;4.20;;;1.20;;